Kinei Maru No.18 — JD3019 — position and weather

sailwx.info

Track history (hours):
 
Tides and Currents Weather Stations Pressure Air Temp Water Temp Dewpoint Dewpoint Depression Visibility Wind Speed Wind Dir Waves Ship Positions

Kinei Maru No.18

Last reported at 2018-Feb-21 05:58 UTC. Time now 2018-Feb-21 09:28 UTC.
Position N 34°34' E 136°59'.

Length 74 m; draft 4.2 m.

MMSI: 431000530.

Date/timePositionNaut miles runAvg speedWind from/ knotsBaromVisibWave heightAir tempDewpointWater temp
2018-Feb-21 05:58N 34°34' E 136°59'611.7
2018-Feb-21 05:30N 34°37' E 136°54'611.5
2018-Feb-21 04:58N 34°42' E 136°49'511.9
2018-Feb-21 04:30N 34°47' E 136°46'611.6
2018-Feb-21 04:00N 34°53' E 136°46'611.3
2018-Feb-21 03:30N 34°58' E 136°48'611.7
2018-Feb-21 03:00N 35°03' E 136°52'2 3.2
2018-Feb-21 02:30N 35°05' E 136°53'0 0.1
2018-Feb-21 02:00N 35°05' E 136°53'0 0.0
2018-Feb-21 01:29N 35°05' E 136°53'2 4.3
2018-Feb-21 01:00N 35°03' E 136°53'0 0.3
2018-Feb-21 00:30N 35°03' E 136°53'0 0.0
2018-Feb-21 00:00N 35°03' E 136°53'0 0.0
2018-Feb-20 23:30N 35°03' E 136°53'0 0.0
2018-Feb-20 23:00N 35°03' E 136°53'0 0.0
2018-Feb-20 22:29N 35°03' E 136°53'0 0.0
2018-Feb-20 22:00N 35°03' E 136°53'0 0.0
2018-Feb-20 21:30N 35°03' E 136°53'0 0.0
2018-Feb-20 21:00N 35°03' E 136°53'0 0.0
2018-Feb-20 20:30N 35°03' E 136°53'0 0.0
2018-Feb-20 20:00N 35°03' E 136°53'0 0.0
2018-Feb-20 19:30N 35°03' E 136°53'0 0.1
2018-Feb-20 19:00N 35°03' E 136°53'2 4.0
2018-Feb-20 18:29N 35°05' E 136°52'0 0.2
2018-Feb-20 18:00N 35°05' E 136°53'0 0.0
2018-Feb-20 17:30N 35°05' E 136°53'0 0.0
2018-Feb-20 17:00N 35°05' E 136°53'0 0.0
2018-Feb-20 16:30N 35°05' E 136°53'0 0.0
2018-Feb-20 16:00N 35°05' E 136°53'0 0.0
2018-Feb-20 15:30N 35°05' E 136°53'0 0.1
2018-Feb-20 15:00N 35°05' E 136°53'0 0.0
2018-Feb-20 14:30N 35°05' E 136°53'0 0.0
2018-Feb-20 14:00N 35°05' E 136°53'0 0.1
2018-Feb-20 13:30N 35°05' E 136°53'0 0.0
2018-Feb-20 13:00N 35°05' E 136°53'0 0.0
2018-Feb-20 12:30N 35°05' E 136°53'0 0.0
2018-Feb-20 12:00N 35°05' E 136°53'0 0.0
2018-Feb-20 11:30N 35°05' E 136°53'0 0.1
2018-Feb-20 11:00N 35°05' E 136°53'2 3.7
2018-Feb-20 10:30N 35°03' E 136°53'0 0.0
2018-Feb-20 10:00N 35°03' E 136°53'1 1.2
2018-Feb-20 09:30N 35°03' E 136°52'1 2.8
2018-Feb-20 09:00N 35°04' E 136°52'0 0.0
2018-Feb-20 08:30N 35°04' E 136°52'0 0.0
2018-Feb-20 08:00N 35°04' E 136°52'0 0.0
2018-Feb-20 07:30N 35°04' E 136°52'0 0.0
2018-Feb-20 07:00N 35°04' E 136°52'0 0.0
2018-Feb-20 06:30N 35°04' E 136°52'0 0.0
2018-Feb-20 06:00N 35°04' E 136°52'0 0.0
2018-Feb-20 05:30N 35°04' E 136°52'0 0.0
2018-Feb-20 05:00N 35°04' E 136°52'0 0.0
2018-Feb-20 04:30N 35°04' E 136°52'0 0.0
2018-Feb-20 04:00N 35°04' E 136°52'0 0.0
2018-Feb-20 03:30N 35°04' E 136°52'0 0.0
2018-Feb-20 03:00N 35°04' E 136°52'0 0.0
2018-Feb-20 02:30N 35°04' E 136°52'0 0.0
2018-Feb-20 02:00N 35°04' E 136°52'0 0.0
2018-Feb-20 01:30N 35°04' E 136°52'0 0.0
2018-Feb-20 01:00N 35°04' E 136°52'0 0.0
2018-Feb-20 00:30N 35°04' E 136°52'0 0.0
2018-Feb-20 00:00N 35°04' E 136°52'0 0.0
2018-Feb-19 23:30N 35°04' E 136°52'0 0.0
2018-Feb-19 23:00N 35°04' E 136°52'0 0.0
2018-Feb-19 22:30N 35°04' E 136°52'3 6.4
2018-Feb-19 22:00N 35°01' E 136°50'4 7.8
2018-Feb-19 21:30N 34°58' E 136°47'0 0.0
2018-Feb-19 21:00N 34°58' E 136°47'0 0.0
2018-Feb-19 20:30N 34°58' E 136°47'0 0.0
2018-Feb-19 20:00N 34°58' E 136°47'0 0.0
2018-Feb-19 19:30N 34°58' E 136°47'0 0.0
2018-Feb-19 19:00N 34°58' E 136°47'0 0.0
2018-Feb-19 18:30N 34°58' E 136°47'0 0.0
2018-Feb-19 18:00N 34°58' E 136°47'0 0.1
2018-Feb-19 17:30N 34°58' E 136°47'0 0.1
2018-Feb-19 17:00N 34°58' E 136°47'0 0.0
2018-Feb-19 16:30N 34°58' E 136°47'0 0.1
2018-Feb-19 16:00N 34°58' E 136°47'0 0.1
2018-Feb-19 15:30N 34°58' E 136°47'0 0.0
2018-Feb-19 15:00N 34°58' E 136°47'0 0.0
2018-Feb-19 14:30N 34°58' E 136°47'0 0.0
2018-Feb-19 14:00N 34°58' E 136°47'0 0.0
2018-Feb-19 13:30N 34°58' E 136°47'0 0.0
2018-Feb-19 13:00N 34°58' E 136°47'0 0.0
2018-Feb-19 12:30N 34°58' E 136°47'0 0.0
2018-Feb-19 12:00N 34°58' E 136°47'0 0.0
2018-Feb-19 11:30N 34°58' E 136°47'3 6.8
2018-Feb-19 11:00N 34°55' E 136°47'510.9
2018-Feb-19 10:30N 34°49' E 136°48'24 5.1
2018-Feb-19 05:42N 34°44' E 137°17'210.6
2018-Feb-19 05:29N 34°44' E 137°14'1 0.6
2018-Feb-19 04:27N 34°43' E 137°13'0 0.0
2018-Feb-19 03:55N 34°43' E 137°13'0 0.0
2018-Feb-19 03:30N 34°43' E 137°13'0 0.0
2018-Feb-19 02:55N 34°43' E 137°13'0 0.0
2018-Feb-19 02:30N 34°43' E 137°13'0 0.0
2018-Feb-19 01:19N 34°43' E 137°13'0 0.2
2018-Feb-19 00:57N 34°43' E 137°13'610.5
2018-Feb-19 00:24N 34°41' E 137°07'113 8.5
2018-Feb-18 11:10N 33°47' E 135°07'211.7
2018-Feb-18 10:58N 33°49' E 135°05'511.5
2018-Feb-18 10:30N 33°53' E 135°01'611.2
2018-Feb-18 10:01N 33°57' E 134°57'611.3
2018-Feb-18 09:31N 34°01' E 134°52'611.4
2018-Feb-18 09:00N 34°05' E 134°48'611.6
2018-Feb-18 08:30N 34°10' E 134°43'612.1
2018-Feb-18 07:59N 34°15' E 134°38'511.0
2018-Feb-18 07:30N 34°18' E 134°33'611.5
2018-Feb-18 06:59N 34°20' E 134°26'1012.0
2018-Feb-18 06:09N 34°23' E 134°15'7411.5
2018-Feb-17 23:45N 34°04' E 132°49'413.0
2018-Feb-17 23:27N 34°01' E 132°46'612.8
2018-Feb-17 23:00N 33°57' E 132°42'612.5
2018-Feb-17 22:30N 33°53' E 132°36'611.6
2018-Feb-17 21:59N 33°48' E 132°31'911.3
2018-Feb-17 21:12N 33°43' E 132°22'1511.0
2018-Feb-17 19:47N 33°33' E 132°08'710.8
2018-Feb-17 19:08N 33°29' E 132°01'110.7
2018-Feb-17 18:59N 33°28' E 131°60'510.8
2018-Feb-17 18:30N 33°25' E 131°54'510.8
2018-Feb-17 18:00N 33°22' E 131°49'611.3
2018-Feb-17 17:30N 33°19' E 131°43'3 0.2
2018-Feb-17 01:33N 33°22' E 131°42'0 1.0
2018-Feb-17 01:30N 33°22' E 131°42'0 0.0
2018-Feb-17 01:00N 33°22' E 131°42'0 0.0
2018-Feb-17 00:30N 33°22' E 131°42'0 0.0
2018-Feb-17 00:00N 33°22' E 131°42'0 0.0
2018-Feb-16 23:30N 33°22' E 131°42'0 0.0
2018-Feb-16 20:36N 33°22' E 131°42'0 0.1
2018-Feb-16 20:24N 33°22' E 131°42'0 0.0
2018-Feb-16 19:42N 33°22' E 131°42'0 0.0
2018-Feb-16 19:30N 33°22' E 131°42'0 0.0
2018-Feb-16 18:52N 33°22' E 131°42'0 0.5
2018-Feb-16 18:26N 33°23' E 131°42'2612.9
2018-Feb-16 16:24N 33°36' E 132°09'513.1
2018-Feb-16 15:59N 33°39' E 132°15'612.9
2018-Feb-16 15:30N 33°43' E 132°21'712.6
2018-Feb-16 14:59N 33°46' E 132°28'612.6
2018-Feb-16 14:30N 33°50' E 132°33'612.0
2018-Feb-16 13:59N 33°55' E 132°38'8510.2
2018-Feb-16 05:40N 34°24' E 134°14'211.0
2018-Feb-16 05:30N 34°24' E 134°16'611.5
2018-Feb-16 05:00N 34°25' E 134°23'612.1
2018-Feb-16 04:30N 34°28' E 134°30'612.3
2018-Feb-16 04:00N 34°30' E 134°37'612.4
2018-Feb-16 03:30N 34°32' E 134°44'713.2
2018-Feb-16 03:01N 34°35' E 134°51'713.0
2018-Feb-16 02:30N 34°37' E 134°58'612.7
2018-Feb-16 02:00N 34°36' E 135°06'612.8
2018-Feb-16 01:30N 34°36' E 135°13'611.4
2018-Feb-16 01:00N 34°41' E 135°18'1 2.3
2018-Feb-16 00:30N 34°41' E 135°17'0 0.0
2018-Feb-16 00:00N 34°41' E 135°17'0 0.0
2018-Feb-15 23:30N 34°41' E 135°17'0 0.0
2018-Feb-15 23:00N 34°41' E 135°17'2 4.4
2018-Feb-15 22:30N 34°40' E 135°19'0 0.4
2018-Feb-15 22:00N 34°40' E 135°19'0 0.1
2018-Feb-15 21:30N 34°40' E 135°19'0 0.0
2018-Feb-15 20:58N 34°40' E 135°19'0 0.0
2018-Feb-15 20:28N 34°40' E 135°19'0 0.0
2018-Feb-15 19:58N 34°40' E 135°19'0 0.0
2018-Feb-15 19:28N 34°40' E 135°19'0 0.0
2018-Feb-15 18:58N 34°40' E 135°19'4 8.7
2018-Feb-15 18:31N 34°37' E 135°16'611.6
2018-Feb-15 18:00N 34°35' E 135°09'714.1
2018-Feb-15 17:31N 34°37' E 135°01'815.3
2018-Feb-15 17:01N 34°34' E 134°52'713.6
2018-Feb-15 16:30N 34°32' E 134°45'612.6
2018-Feb-15 16:00N 34°29' E 134°38'612.0
2018-Feb-15 15:31N 34°27' E 134°31'612.0
2018-Feb-15 15:00N 34°25' E 134°24'8011.0
2018-Feb-15 07:43N 34°05' E 132°50'511.7
2018-Feb-15 07:17N 34°01' E 132°46'310.9
2018-Feb-15 06:59N 33°59' E 132°44'510.4
2018-Feb-15 06:31N 33°55' E 132°39'611.0
2018-Feb-15 05:57N 33°52' E 132°33'711.5
2018-Feb-15 05:21N 33°50' E 132°25'410.7
2018-Feb-15 05:01N 33°50' E 132°20'611.7
2018-Feb-15 04:29N 33°50' E 132°13'611.4
2018-Feb-15 03:59N 33°47' E 132°07'8 9.2
2018-Feb-15 03:10N 33°50' E 131°59'212.5
2018-Feb-15 02:58N 33°53' E 131°57'612.3
2018-Feb-15 02:28N 33°58' E 131°53'2 2.7
2018-Feb-15 01:48N 33°59' E 131°52'0 0.0
2018-Feb-15 01:30N 33°59' E 131°52'0 0.0
2018-Feb-15 01:00N 33°59' E 131°52'0 0.0
2018-Feb-15 00:12N 33°59' E 131°52'0 0.0
2018-Feb-14 23:54N 33°59' E 131°52'0 0.0
2018-Feb-14 23:30N 33°59' E 131°52'0 0.4
2018-Feb-14 22:48N 33°59' E 131°52'1 3.4
2018-Feb-14 22:28N 33°58' E 131°53'1 1.8
2018-Feb-14 21:59N 33°57' E 131°53'0 0.0
2018-Feb-14 21:29N 33°57' E 131°53'0 0.0
2018-Feb-14 19:59N 33°57' E 131°53'0 0.1
2018-Feb-14 19:29N 33°57' E 131°53'811.0
2018-Feb-14 18:44N 33°50' E 131°59'312.5
2018-Feb-14 18:29N 33°47' E 132°00'1111.4
2018-Feb-14 17:29N 33°50' E 132°14'812.8
2018-Feb-14 16:52N 33°50' E 132°23'512.9
2018-Feb-14 16:29N 33°52' E 132°29'612.9
2018-Feb-14 16:00N 33°54' E 132°36'8711.6
2018-Feb-14 08:33N 34°24' E 134°14'113.4
2018-Feb-14 08:31N 34°24' E 134°15'612.7
2018-Feb-14 08:01N 34°26' E 134°22'612.3
2018-Feb-14 07:31N 34°29' E 134°28'611.3
2018-Feb-14 07:00N 34°34' E 134°33'611.2
2018-Feb-14 06:30N 34°38' E 134°38'612.1
2018-Feb-14 05:59N 34°44' E 134°38'3 6.0
2018-Feb-14 05:30N 34°47' E 134°38'0 0.0
2018-Feb-14 05:00N 34°47' E 134°38'0 0.0
2018-Feb-14 04:29N 34°47' E 134°38'0 0.0
2018-Feb-14 04:00N 34°47' E 134°38'0 0.0
2018-Feb-14 03:30N 34°47' E 134°38'0 0.0
2018-Feb-14 03:00N 34°47' E 134°38'0 0.0
2018-Feb-14 02:29N 34°47' E 134°38'0 0.0
2018-Feb-14 01:59N 34°47' E 134°38'3 1.1
2018-Feb-13 23:46N 34°44' E 134°38'0 0.0
2018-Feb-13 23:28N 34°44' E 134°38'0 0.0
2018-Feb-13 22:34N 34°44' E 134°38'0 0.0
2018-Feb-13 20:40N 34°44' E 134°38'0 0.0
2018-Feb-13 18:34N 34°44' E 134°38'0 0.0
2018-Feb-13 18:22N 34°44' E 134°38'0 0.0
2018-Feb-13 16:10N 34°44' E 134°38'0 0.0
2018-Feb-13 15:58N 34°44' E 134°38'0 0.0
2018-Feb-13 14:52N 34°44' E 134°38'0 0.0
2018-Feb-13 14:28N 34°44' E 134°38'0 0.0
2018-Feb-13 13:58N 34°44' E 134°38'0 0.0
2018-Feb-13 13:28N 34°44' E 134°38'0 0.0
2018-Feb-13 12:52N 34°44' E 134°38'0 0.0
2018-Feb-13 10:16N 34°44' E 134°38'0 0.0
2018-Feb-13 09:58N 34°44' E 134°38'0 0.0
2018-Feb-13 09:22N 34°44' E 134°38'0 0.0
2018-Feb-13 07:40N 34°44' E 134°38'0 0.0
2018-Feb-13 07:28N 34°44' E 134°38'0 0.0
2018-Feb-13 06:58N 34°44' E 134°38'0 0.0
2018-Feb-13 06:22N 34°44' E 134°38'0 0.0
2018-Feb-13 05:40N 34°44' E 134°38'0 0.0
2018-Feb-13 05:28N 34°44' E 134°38'0 0.0
2018-Feb-13 04:52N 34°44' E 134°38'0 0.0
2018-Feb-13 03:22N 34°44' E 134°38'0 0.0
2018-Feb-13 02:58N 34°44' E 134°38'0 0.0
2018-Feb-13 02:04N 34°44' E 134°38'0 0.1
2018-Feb-13 01:58N 34°44' E 134°38'0 0.0
2018-Feb-13 01:22N 34°44' E 134°38'0 0.0
2018-Feb-13 00:52N 34°44' E 134°38'0 0.0
2018-Feb-13 00:28N 34°44' E 134°38'0 0.0
2018-Feb-12 23:04N 34°44' E 134°38'0 0.0
2018-Feb-12 22:46N 34°44' E 134°38'0 0.0
2018-Feb-12 20:04N 34°44' E 134°38'0 0.0
2018-Feb-12 19:04N 34°44' E 134°38'0 0.0
2018-Feb-12 18:58N 34°44' E 134°38'0 0.0
2018-Feb-12 18:22N 34°44' E 134°38'0 0.0
2018-Feb-12 17:58N 34°44' E 134°38'0 0.0
2018-Feb-12 17:22N 34°44' E 134°38'0 0.0
2018-Feb-12 16:40N 34°44' E 134°38'0 0.0
2018-Feb-12 15:16N 34°44' E 134°38'0 0.0
2018-Feb-12 14:58N 34°44' E 134°38'0 0.0
2018-Feb-12 14:04N 34°44' E 134°38'0 0.1
2018-Feb-12 13:58N 34°44' E 134°38'0 0.0
2018-Feb-12 13:22N 34°44' E 134°38'0 0.0
2018-Feb-12 12:46N 34°44' E 134°38'0 0.0
2018-Feb-12 12:28N 34°44' E 134°38'0 0.0
2018-Feb-12 11:52N 34°44' E 134°38'0 0.0
2018-Feb-12 11:28N 34°44' E 134°38'0 0.0
2018-Feb-12 10:58N 34°44' E 134°38'0 0.0
2018-Feb-12 10:22N 34°44' E 134°38'0 0.0
2018-Feb-12 09:58N 34°44' E 134°38'0 0.0
2018-Feb-12 09:10N 34°44' E 134°38'0 0.0
2018-Feb-12 09:00N 34°44' E 134°38'0 0.0
2018-Feb-12 08:29N 34°44' E 134°38'0 0.0
2018-Feb-12 08:00N 34°44' E 134°38'0 0.1
2018-Feb-12 07:30N 34°44' E 134°38'4 7.8
2018-Feb-12 07:00N 34°42' E 134°42'510.1
2018-Feb-12 06:30N 34°40' E 134°48'5 9.5
2018-Feb-12 06:00N 34°38' E 134°53'5 9.5
2018-Feb-12 05:30N 34°38' E 134°59'4 7.8
2018-Feb-12 05:01N 34°36' E 135°03'4 8.9
2018-Feb-12 04:30N 34°36' E 135°09'5 9.5
2018-Feb-12 04:00N 34°36' E 135°14'5 9.5
2018-Feb-12 03:30N 34°34' E 135°20'5 9.4
2018-Feb-12 03:00N 34°31' E 135°24'1 1.2
2018-Feb-12 02:29N 34°31' E 135°24'0 0.0
2018-Feb-12 02:00N 34°31' E 135°24'0 0.0
2018-Feb-12 01:30N 34°31' E 135°24'0 0.0
2018-Feb-12 01:00N 34°31' E 135°24'0 0.0
2018-Feb-12 00:30N 34°31' E 135°24'0 0.0
2018-Feb-12 00:00N 34°31' E 135°24'0 0.0
2018-Feb-11 23:30N 34°31' E 135°24'0 0.0
2018-Feb-11 23:01N 34°31' E 135°24'0 0.0
2018-Feb-11 22:30N 34°31' E 135°24'0 0.0
2018-Feb-11 22:00N 34°31' E 135°24'0 0.0
2018-Feb-11 21:30N 34°31' E 135°24'0 0.0
2018-Feb-11 21:00N 34°31' E 135°24'0 0.0
2018-Feb-11 20:30N 34°31' E 135°24'0 0.0
2018-Feb-11 20:00N 34°31' E 135°24'0 0.0
2018-Feb-11 19:29N 34°31' E 135°24'0 0.0
2018-Feb-11 19:00N 34°31' E 135°24'0 0.0
2018-Feb-11 18:31N 34°31' E 135°24'0 0.0
2018-Feb-11 18:00N 34°31' E 135°24'0 0.0
2018-Feb-11 17:30N 34°31' E 135°24'0 0.0
2018-Feb-11 17:00N 34°31' E 135°24'0 0.0
2018-Feb-11 16:30N 34°31' E 135°24'0 0.0
2018-Feb-11 16:00N 34°31' E 135°24'0 0.0
2018-Feb-11 15:30N 34°31' E 135°24'0 0.0
2018-Feb-11 15:00N 34°31' E 135°24'0 0.0
2018-Feb-11 14:30N 34°31' E 135°24'0 0.0
2018-Feb-11 13:59N 34°31' E 135°24'0 0.0
2018-Feb-11 13:30N 34°31' E 135°24'0 0.0
2018-Feb-11 13:00N 34°31' E 135°24'0 0.0
2018-Feb-11 12:29N 34°31' E 135°24'0 0.0
2018-Feb-11 12:00N 34°31' E 135°24'0 0.0
2018-Feb-11 11:30N 34°31' E 135°24'0 0.0
2018-Feb-11 11:00N 34°31' E 135°24'0 0.0
2018-Feb-11 10:30N 34°31' E 135°24'0 0.0
2018-Feb-11 10:00N 34°31' E 135°24'0 0.0
2018-Feb-11 09:30N 34°31' E 135°24'0 0.0
2018-Feb-11 09:00N 34°31' E 135°24'0 0.0
2018-Feb-11 08:30N 34°31' E 135°24'0 0.0
2018-Feb-11 08:00N 34°31' E 135°24'0 0.0
2018-Feb-11 07:30N 34°31' E 135°24'0 0.0
2018-Feb-11 07:00N 34°31' E 135°24'0 0.0
2018-Feb-11 06:30N 34°31' E 135°24'0 0.0
2018-Feb-11 06:00N 34°31' E 135°24'  
Track history (hours):
 
Tides and Currents Weather Stations Pressure Air Temp Water Temp Dewpoint Dewpoint Depression Visibility Wind Speed Wind Dir Waves Ship Positions

Kinei Maru No.18

Last reported at 2018-Feb-21 05:58 UTC. Time now 2018-Feb-21 09:28 UTC.
Position N 34°34' E 136°59'.

Length 74 m; draft 4.2 m.

MMSI: 431000530.

Date/timePositionNaut miles runAvg speedWind from/ knotsBaromVisibWave heightAir tempDewpointWater temp
2018-Feb-21 05:58N 34°34' E 136°59'611.7
2018-Feb-21 05:30N 34°37' E 136°54'611.5
2018-Feb-21 04:58N 34°42' E 136°49'511.9
2018-Feb-21 04:30N 34°47' E 136°46'611.6
2018-Feb-21 04:00N 34°53' E 136°46'611.3
2018-Feb-21 03:30N 34°58' E 136°48'611.7
2018-Feb-21 03:00N 35°03' E 136°52'2 3.2
2018-Feb-21 02:30N 35°05' E 136°53'0 0.1
2018-Feb-21 02:00N 35°05' E 136°53'0 0.0
2018-Feb-21 01:29N 35°05' E 136°53'2 4.3
2018-Feb-21 01:00N 35°03' E 136°53'0 0.3
2018-Feb-21 00:30N 35°03' E 136°53'0 0.0
2018-Feb-21 00:00N 35°03' E 136°53'0 0.0
2018-Feb-20 23:30N 35°03' E 136°53'0 0.0
2018-Feb-20 23:00N 35°03' E 136°53'0 0.0
2018-Feb-20 22:29N 35°03' E 136°53'0 0.0
2018-Feb-20 22:00N 35°03' E 136°53'0 0.0
2018-Feb-20 21:30N 35°03' E 136°53'0 0.0
2018-Feb-20 21:00N 35°03' E 136°53'0 0.0
2018-Feb-20 20:30N 35°03' E 136°53'0 0.0
2018-Feb-20 20:00N 35°03' E 136°53'0 0.0
2018-Feb-20 19:30N 35°03' E 136°53'0 0.1
2018-Feb-20 19:00N 35°03' E 136°53'2 4.0
2018-Feb-20 18:29N 35°05' E 136°52'0 0.2
2018-Feb-20 18:00N 35°05' E 136°53'0 0.0
2018-Feb-20 17:30N 35°05' E 136°53'0 0.0
2018-Feb-20 17:00N 35°05' E 136°53'0 0.0
2018-Feb-20 16:30N 35°05' E 136°53'0 0.0
2018-Feb-20 16:00N 35°05' E 136°53'0 0.0
2018-Feb-20 15:30N 35°05' E 136°53'0 0.1
2018-Feb-20 15:00N 35°05' E 136°53'0 0.0
2018-Feb-20 14:30N 35°05' E 136°53'0 0.0
2018-Feb-20 14:00N 35°05' E 136°53'0 0.1
2018-Feb-20 13:30N 35°05' E 136°53'0 0.0
2018-Feb-20 13:00N 35°05' E 136°53'0 0.0
2018-Feb-20 12:30N 35°05' E 136°53'0 0.0
2018-Feb-20 12:00N 35°05' E 136°53'0 0.0
2018-Feb-20 11:30N 35°05' E 136°53'0 0.1
2018-Feb-20 11:00N 35°05' E 136°53'2 3.7
2018-Feb-20 10:30N 35°03' E 136°53'0 0.0
2018-Feb-20 10:00N 35°03' E 136°53'1 1.2
2018-Feb-20 09:30N 35°03' E 136°52'1 2.8
2018-Feb-20 09:00N 35°04' E 136°52'0 0.0
2018-Feb-20 08:30N 35°04' E 136°52'0 0.0
2018-Feb-20 08:00N 35°04' E 136°52'0 0.0
2018-Feb-20 07:30N 35°04' E 136°52'0 0.0
2018-Feb-20 07:00N 35°04' E 136°52'0 0.0
2018-Feb-20 06:30N 35°04' E 136°52'0 0.0
2018-Feb-20 06:00N 35°04' E 136°52'0 0.0
2018-Feb-20 05:30N 35°04' E 136°52'0 0.0
2018-Feb-20 05:00N 35°04' E 136°52'0 0.0
2018-Feb-20 04:30N 35°04' E 136°52'0 0.0
2018-Feb-20 04:00N 35°04' E 136°52'0 0.0
2018-Feb-20 03:30N 35°04' E 136°52'0 0.0
2018-Feb-20 03:00N 35°04' E 136°52'0 0.0
2018-Feb-20 02:30N 35°04' E 136°52'0 0.0
2018-Feb-20 02:00N 35°04' E 136°52'0 0.0
2018-Feb-20 01:30N 35°04' E 136°52'0 0.0
2018-Feb-20 01:00N 35°04' E 136°52'0 0.0
2018-Feb-20 00:30N 35°04' E 136°52'0 0.0
2018-Feb-20 00:00N 35°04' E 136°52'0 0.0
2018-Feb-19 23:30N 35°04' E 136°52'0 0.0
2018-Feb-19 23:00N 35°04' E 136°52'0 0.0
2018-Feb-19 22:30N 35°04' E 136°52'3 6.4
2018-Feb-19 22:00N 35°01' E 136°50'4 7.8
2018-Feb-19 21:30N 34°58' E 136°47'0 0.0
2018-Feb-19 21:00N 34°58' E 136°47'0 0.0
2018-Feb-19 20:30N 34°58' E 136°47'0 0.0
2018-Feb-19 20:00N 34°58' E 136°47'0 0.0
2018-Feb-19 19:30N 34°58' E 136°47'0 0.0
2018-Feb-19 19:00N 34°58' E 136°47'0 0.0
2018-Feb-19 18:30N 34°58' E 136°47'0 0.0
2018-Feb-19 18:00N 34°58' E 136°47'0 0.1
2018-Feb-19 17:30N 34°58' E 136°47'0 0.1
2018-Feb-19 17:00N 34°58' E 136°47'0 0.0
2018-Feb-19 16:30N 34°58' E 136°47'0 0.1
2018-Feb-19 16:00N 34°58' E 136°47'0 0.1
2018-Feb-19 15:30N 34°58' E 136°47'0 0.0
2018-Feb-19 15:00N 34°58' E 136°47'0 0.0
2018-Feb-19 14:30N 34°58' E 136°47'0 0.0
2018-Feb-19 14:00N 34°58' E 136°47'0 0.0
2018-Feb-19 13:30N 34°58' E 136°47'0 0.0
2018-Feb-19 13:00N 34°58' E 136°47'0 0.0
2018-Feb-19 12:30N 34°58' E 136°47'0 0.0
2018-Feb-19 12:00N 34°58' E 136°47'0 0.0
2018-Feb-19 11:30N 34°58' E 136°47'3 6.8
2018-Feb-19 11:00N 34°55' E 136°47'510.9
2018-Feb-19 10:30N 34°49' E 136°48'24 5.1
2018-Feb-19 05:42N 34°44' E 137°17'210.6
2018-Feb-19 05:29N 34°44' E 137°14'1 0.6
2018-Feb-19 04:27N 34°43' E 137°13'0 0.0
2018-Feb-19 03:55N 34°43' E 137°13'0 0.0
2018-Feb-19 03:30N 34°43' E 137°13'0 0.0
2018-Feb-19 02:55N 34°43' E 137°13'0 0.0
2018-Feb-19 02:30N 34°43' E 137°13'0 0.0
2018-Feb-19 01:19N 34°43' E 137°13'0 0.2
2018-Feb-19 00:57N 34°43' E 137°13'610.5
2018-Feb-19 00:24N 34°41' E 137°07'113 8.5
2018-Feb-18 11:10N 33°47' E 135°07'211.7
2018-Feb-18 10:58N 33°49' E 135°05'511.5
2018-Feb-18 10:30N 33°53' E 135°01'611.2
2018-Feb-18 10:01N 33°57' E 134°57'611.3
2018-Feb-18 09:31N 34°01' E 134°52'611.4
2018-Feb-18 09:00N 34°05' E 134°48'611.6
2018-Feb-18 08:30N 34°10' E 134°43'612.1
2018-Feb-18 07:59N 34°15' E 134°38'511.0
2018-Feb-18 07:30N 34°18' E 134°33'611.5
2018-Feb-18 06:59N 34°20' E 134°26'1012.0
2018-Feb-18 06:09N 34°23' E 134°15'7411.5
2018-Feb-17 23:45N 34°04' E 132°49'413.0
2018-Feb-17 23:27N 34°01' E 132°46'612.8
2018-Feb-17 23:00N 33°57' E 132°42'612.5
2018-Feb-17 22:30N 33°53' E 132°36'611.6
2018-Feb-17 21:59N 33°48' E 132°31'911.3
2018-Feb-17 21:12N 33°43' E 132°22'1511.0
2018-Feb-17 19:47N 33°33' E 132°08'710.8
2018-Feb-17 19:08N 33°29' E 132°01'110.7
2018-Feb-17 18:59N 33°28' E 131°60'510.8
2018-Feb-17 18:30N 33°25' E 131°54'510.8
2018-Feb-17 18:00N 33°22' E 131°49'611.3
2018-Feb-17 17:30N 33°19' E 131°43'3 0.2
2018-Feb-17 01:33N 33°22' E 131°42'0 1.0
2018-Feb-17 01:30N 33°22' E 131°42'0 0.0
2018-Feb-17 01:00N 33°22' E 131°42'0 0.0
2018-Feb-17 00:30N 33°22' E 131°42'0 0.0
2018-Feb-17 00:00N 33°22' E 131°42'0 0.0
2018-Feb-16 23:30N 33°22' E 131°42'0 0.0
2018-Feb-16 20:36N 33°22' E 131°42'0 0.1
2018-Feb-16 20:24N 33°22' E 131°42'0 0.0
2018-Feb-16 19:42N 33°22' E 131°42'0 0.0
2018-Feb-16 19:30N 33°22' E 131°42'0 0.0
2018-Feb-16 18:52N 33°22' E 131°42'0 0.5
2018-Feb-16 18:26N 33°23' E 131°42'2612.9
2018-Feb-16 16:24N 33°36' E 132°09'513.1
2018-Feb-16 15:59N 33°39' E 132°15'612.9
2018-Feb-16 15:30N 33°43' E 132°21'712.6
2018-Feb-16 14:59N 33°46' E 132°28'612.6
2018-Feb-16 14:30N 33°50' E 132°33'612.0
2018-Feb-16 13:59N 33°55' E 132°38'8510.2
2018-Feb-16 05:40N 34°24' E 134°14'211.0
2018-Feb-16 05:30N 34°24' E 134°16'611.5
2018-Feb-16 05:00N 34°25' E 134°23'612.1
2018-Feb-16 04:30N 34°28' E 134°30'612.3
2018-Feb-16 04:00N 34°30' E 134°37'612.4
2018-Feb-16 03:30N 34°32' E 134°44'713.2
2018-Feb-16 03:01N 34°35' E 134°51'713.0
2018-Feb-16 02:30N 34°37' E 134°58'612.7
2018-Feb-16 02:00N 34°36' E 135°06'612.8
2018-Feb-16 01:30N 34°36' E 135°13'611.4
2018-Feb-16 01:00N 34°41' E 135°18'1 2.3
2018-Feb-16 00:30N 34°41' E 135°17'0 0.0
2018-Feb-16 00:00N 34°41' E 135°17'0 0.0
2018-Feb-15 23:30N 34°41' E 135°17'0 0.0
2018-Feb-15 23:00N 34°41' E 135°17'2 4.4
2018-Feb-15 22:30N 34°40' E 135°19'0 0.4
2018-Feb-15 22:00N 34°40' E 135°19'0 0.1
2018-Feb-15 21:30N 34°40' E 135°19'0 0.0
2018-Feb-15 20:58N 34°40' E 135°19'0 0.0
2018-Feb-15 20:28N 34°40' E 135°19'0 0.0
2018-Feb-15 19:58N 34°40' E 135°19'0 0.0
2018-Feb-15 19:28N 34°40' E 135°19'0 0.0
2018-Feb-15 18:58N 34°40' E 135°19'4 8.7
2018-Feb-15 18:31N 34°37' E 135°16'611.6
2018-Feb-15 18:00N 34°35' E 135°09'714.1
2018-Feb-15 17:31N 34°37' E 135°01'815.3
2018-Feb-15 17:01N 34°34' E 134°52'713.6
2018-Feb-15 16:30N 34°32' E 134°45'612.6
2018-Feb-15 16:00N 34°29' E 134°38'612.0
2018-Feb-15 15:31N 34°27' E 134°31'612.0
2018-Feb-15 15:00N 34°25' E 134°24'8011.0
2018-Feb-15 07:43N 34°05' E 132°50'511.7
2018-Feb-15 07:17N 34°01' E 132°46'310.9
2018-Feb-15 06:59N 33°59' E 132°44'510.4
2018-Feb-15 06:31N 33°55' E 132°39'611.0
2018-Feb-15 05:57N 33°52' E 132°33'711.5
2018-Feb-15 05:21N 33°50' E 132°25'410.7
2018-Feb-15 05:01N 33°50' E 132°20'611.7
2018-Feb-15 04:29N 33°50' E 132°13'611.4
2018-Feb-15 03:59N 33°47' E 132°07'8 9.2
2018-Feb-15 03:10N 33°50' E 131°59'212.5
2018-Feb-15 02:58N 33°53' E 131°57'612.3
2018-Feb-15 02:28N 33°58' E 131°53'2 2.7
2018-Feb-15 01:48N 33°59' E 131°52'0 0.0
2018-Feb-15 01:30N 33°59' E 131°52'0 0.0
2018-Feb-15 01:00N 33°59' E 131°52'0 0.0
2018-Feb-15 00:12N 33°59' E 131°52'0 0.0
2018-Feb-14 23:54N 33°59' E 131°52'0 0.0
2018-Feb-14 23:30N 33°59' E 131°52'0 0.4
2018-Feb-14 22:48N 33°59' E 131°52'1 3.4
2018-Feb-14 22:28N 33°58' E 131°53'1 1.8
2018-Feb-14 21:59N 33°57' E 131°53'0 0.0
2018-Feb-14 21:29N 33°57' E 131°53'0 0.0
2018-Feb-14 19:59N 33°57' E 131°53'0 0.1
2018-Feb-14 19:29N 33°57' E 131°53'811.0
2018-Feb-14 18:44N 33°50' E 131°59'312.5
2018-Feb-14 18:29N 33°47' E 132°00'1111.4
2018-Feb-14 17:29N 33°50' E 132°14'812.8
2018-Feb-14 16:52N 33°50' E 132°23'512.9
2018-Feb-14 16:29N 33°52' E 132°29'612.9
2018-Feb-14 16:00N 33°54' E 132°36'8711.6
2018-Feb-14 08:33N 34°24' E 134°14'113.4
2018-Feb-14 08:31N 34°24' E 134°15'612.7
2018-Feb-14 08:01N 34°26' E 134°22'612.3
2018-Feb-14 07:31N 34°29' E 134°28'611.3
2018-Feb-14 07:00N 34°34' E 134°33'611.2
2018-Feb-14 06:30N 34°38' E 134°38'612.1
2018-Feb-14 05:59N 34°44' E 134°38'3 6.0
2018-Feb-14 05:30N 34°47' E 134°38'0 0.0
2018-Feb-14 05:00N 34°47' E 134°38'0 0.0
2018-Feb-14 04:29N 34°47' E 134°38'0 0.0
2018-Feb-14 04:00N 34°47' E 134°38'0 0.0
2018-Feb-14 03:30N 34°47' E 134°38'0 0.0
2018-Feb-14 03:00N 34°47' E 134°38'0 0.0
2018-Feb-14 02:29N 34°47' E 134°38'0 0.0
2018-Feb-14 01:59N 34°47' E 134°38'3 1.1
2018-Feb-13 23:46N 34°44' E 134°38'0 0.0
2018-Feb-13 23:28N 34°44' E 134°38'0 0.0
2018-Feb-13 22:34N 34°44' E 134°38'0 0.0
2018-Feb-13 20:40N 34°44' E 134°38'0 0.0
2018-Feb-13 18:34N 34°44' E 134°38'0 0.0
2018-Feb-13 18:22N 34°44' E 134°38'0 0.0
2018-Feb-13 16:10N 34°44' E 134°38'0 0.0
2018-Feb-13 15:58N 34°44' E 134°38'0 0.0
2018-Feb-13 14:52N 34°44' E 134°38'0 0.0
2018-Feb-13 14:28N 34°44' E 134°38'0 0.0
2018-Feb-13 13:58N 34°44' E 134°38'0 0.0
2018-Feb-13 13:28N 34°44' E 134°38'0 0.0
2018-Feb-13 12:52N 34°44' E 134°38'0 0.0
2018-Feb-13 10:16N 34°44' E 134°38'0 0.0
2018-Feb-13 09:58N 34°44' E 134°38'0 0.0
2018-Feb-13 09:22N 34°44' E 134°38'0 0.0
2018-Feb-13 07:40N 34°44' E 134°38'0 0.0
2018-Feb-13 07:28N 34°44' E 134°38'0 0.0
2018-Feb-13 06:58N 34°44' E 134°38'0 0.0
2018-Feb-13 06:22N 34°44' E 134°38'0 0.0
2018-Feb-13 05:40N 34°44' E 134°38'0 0.0
2018-Feb-13 05:28N 34°44' E 134°38'0 0.0
2018-Feb-13 04:52N 34°44' E 134°38'0 0.0
2018-Feb-13 03:22N 34°44' E 134°38'0 0.0
2018-Feb-13 02:58N 34°44' E 134°38'0 0.0
2018-Feb-13 02:04N 34°44' E 134°38'0 0.1
2018-Feb-13 01:58N 34°44' E 134°38'0 0.0
2018-Feb-13 01:22N 34°44' E 134°38'0 0.0
2018-Feb-13 00:52N 34°44' E 134°38'0 0.0
2018-Feb-13 00:28N 34°44' E 134°38'0 0.0
2018-Feb-12 23:04N 34°44' E 134°38'0 0.0
2018-Feb-12 22:46N 34°44' E 134°38'0 0.0
2018-Feb-12 20:04N 34°44' E 134°38'0 0.0
2018-Feb-12 19:04N 34°44' E 134°38'0 0.0
2018-Feb-12 18:58N 34°44' E 134°38'0 0.0
2018-Feb-12 18:22N 34°44' E 134°38'0 0.0
2018-Feb-12 17:58N 34°44' E 134°38'0 0.0
2018-Feb-12 17:22N 34°44' E 134°38'0 0.0
2018-Feb-12 16:40N 34°44' E 134°38'0 0.0
2018-Feb-12 15:16N 34°44' E 134°38'0 0.0
2018-Feb-12 14:58N 34°44' E 134°38'0 0.0
2018-Feb-12 14:04N 34°44' E 134°38'0 0.1
2018-Feb-12 13:58N 34°44' E 134°38'0 0.0
2018-Feb-12 13:22N 34°44' E 134°38'0 0.0
2018-Feb-12 12:46N 34°44' E 134°38'0 0.0
2018-Feb-12 12:28N 34°44' E 134°38'0 0.0
2018-Feb-12 11:52N 34°44' E 134°38'0 0.0
2018-Feb-12 11:28N 34°44' E 134°38'0 0.0
2018-Feb-12 10:58N 34°44' E 134°38'0 0.0
2018-Feb-12 10:22N 34°44' E 134°38'0 0.0
2018-Feb-12 09:58N 34°44' E 134°38'0 0.0
2018-Feb-12 09:10N 34°44' E 134°38'0 0.0
2018-Feb-12 09:00N 34°44' E 134°38'0 0.0
2018-Feb-12 08:29N 34°44' E 134°38'0 0.0
2018-Feb-12 08:00N 34°44' E 134°38'0 0.1
2018-Feb-12 07:30N 34°44' E 134°38'4 7.8
2018-Feb-12 07:00N 34°42' E 134°42'510.1
2018-Feb-12 06:30N 34°40' E 134°48'5 9.5
2018-Feb-12 06:00N 34°38' E 134°53'5 9.5
2018-Feb-12 05:30N 34°38' E 134°59'4 7.8
2018-Feb-12 05:01N 34°36' E 135°03'4 8.9
2018-Feb-12 04:30N 34°36' E 135°09'5 9.5
2018-Feb-12 04:00N 34°36' E 135°14'5 9.5
2018-Feb-12 03:30N 34°34' E 135°20'5 9.4
2018-Feb-12 03:00N 34°31' E 135°24'1 1.2
2018-Feb-12 02:29N 34°31' E 135°24'0 0.0
2018-Feb-12 02:00N 34°31' E 135°24'0 0.0
2018-Feb-12 01:30N 34°31' E 135°24'0 0.0
2018-Feb-12 01:00N 34°31' E 135°24'0 0.0
2018-Feb-12 00:30N 34°31' E 135°24'0 0.0
2018-Feb-12 00:00N 34°31' E 135°24'0 0.0
2018-Feb-11 23:30N 34°31' E 135°24'0 0.0
2018-Feb-11 23:01N 34°31' E 135°24'0 0.0
2018-Feb-11 22:30N 34°31' E 135°24'0 0.0
2018-Feb-11 22:00N 34°31' E 135°24'0 0.0
2018-Feb-11 21:30N 34°31' E 135°24'0 0.0
2018-Feb-11 21:00N 34°31' E 135°24'0 0.0
2018-Feb-11 20:30N 34°31' E 135°24'0 0.0
2018-Feb-11 20:00N 34°31' E 135°24'0 0.0
2018-Feb-11 19:29N 34°31' E 135°24'0 0.0
2018-Feb-11 19:00N 34°31' E 135°24'0 0.0
2018-Feb-11 18:31N 34°31' E 135°24'0 0.0
2018-Feb-11 18:00N 34°31' E 135°24'0 0.0
2018-Feb-11 17:30N 34°31' E 135°24'0 0.0
2018-Feb-11 17:00N 34°31' E 135°24'0 0.0
2018-Feb-11 16:30N 34°31' E 135°24'0 0.0
2018-Feb-11 16:00N 34°31' E 135°24'0 0.0
2018-Feb-11 15:30N 34°31' E 135°24'0 0.0
2018-Feb-11 15:00N 34°31' E 135°24'0 0.0
2018-Feb-11 14:30N 34°31' E 135°24'0 0.0
2018-Feb-11 13:59N 34°31' E 135°24'0 0.0
2018-Feb-11 13:30N 34°31' E 135°24'0 0.0
2018-Feb-11 13:00N 34°31' E 135°24'0 0.0
2018-Feb-11 12:29N 34°31' E 135°24'0 0.0
2018-Feb-11 12:00N 34°31' E 135°24'0 0.0
2018-Feb-11 11:30N 34°31' E 135°24'0 0.0
2018-Feb-11 11:00N 34°31' E 135°24'0 0.0
2018-Feb-11 10:30N 34°31' E 135°24'0 0.0
2018-Feb-11 10:00N 34°31' E 135°24'0 0.0
2018-Feb-11 09:30N 34°31' E 135°24'0 0.0
2018-Feb-11 09:00N 34°31' E 135°24'0 0.0
2018-Feb-11 08:30N 34°31' E 135°24'0 0.0
2018-Feb-11 08:00N 34°31' E 135°24'0 0.0
2018-Feb-11 07:30N 34°31' E 135°24'0 0.0
2018-Feb-11 07:00N 34°31' E 135°24'0 0.0
2018-Feb-11 06:30N 34°31' E 135°24'0 0.0
2018-Feb-11 06:00N 34°31' E 135°24'  

Dump ship's entire track history